sensor_id;sensor_type;location;lat;lon;timestamp;P1;durP1;ratioP1;P2;durP2;ratioP2
51529;SDS011;37613;51.788;21.582;2023-11-18T00:00:34;28.60;;;16.10;;
51529;SDS011;37613;51.788;21.582;2023-11-18T00:04:56;30.50;;;17.90;;
51529;SDS011;37613;51.788;21.582;2023-11-18T00:08:58;23.90;;;15.00;;
51529;SDS011;37613;51.788;21.582;2023-11-18T00:13:00;24.80;;;13.90;;
51529;SDS011;37613;51.788;21.582;2023-11-18T00:17:04;25.20;;;14.50;;
51529;SDS011;37613;51.788;21.582;2023-11-18T00:21:06;31.10;;;16.20;;
51529;SDS011;37613;51.788;21.582;2023-11-18T00:25:09;29.30;;;16.60;;
51529;SDS011;37613;51.788;21.582;2023-11-18T00:29:11;25.40;;;13.60;;
51529;SDS011;37613;51.788;21.582;2023-11-18T00:33:14;32.00;;;17.80;;
51529;SDS011;37613;51.788;21.582;2023-11-18T00:37:16;29.70;;;18.30;;
51529;SDS011;37613;51.788;21.582;2023-11-18T00:41:18;26.70;;;16.00;;
51529;SDS011;37613;51.788;21.582;2023-11-18T00:45:20;24.60;;;13.50;;
51529;SDS011;37613;51.788;21.582;2023-11-18T00:49:23;21.10;;;11.80;;
51529;SDS011;37613;51.788;21.582;2023-11-18T00:53:33;20.70;;;12.20;;
51529;SDS011;37613;51.788;21.582;2023-11-18T00:57:35;20.90;;;12.30;;
51529;SDS011;37613;51.788;21.582;2023-11-18T01:01:37;23.00;;;11.50;;
51529;SDS011;37613;51.788;21.582;2023-11-18T01:05:39;21.80;;;13.00;;
51529;SDS011;37613;51.788;21.582;2023-11-18T01:09:42;16.00;;;11.00;;
51529;SDS011;37613;51.788;21.582;2023-11-18T01:13:45;18.00;;;11.10;;
51529;SDS011;37613;51.788;21.582;2023-11-18T01:17:53;16.00;;;11.70;;
51529;SDS011;37613;51.788;21.582;2023-11-18T01:21:55;17.80;;;11.60;;
51529;SDS011;37613;51.788;21.582;2023-11-18T01:25:57;18.90;;;12.10;;
51529;SDS011;37613;51.788;21.582;2023-11-18T01:29:59;16.40;;;11.90;;
51529;SDS011;37613;51.788;21.582;2023-11-18T01:34:01;24.40;;;15.40;;
51529;SDS011;37613;51.788;21.582;2023-11-18T01:38:06;23.30;;;14.50;;
51529;SDS011;37613;51.788;21.582;2023-11-18T01:42:08;22.40;;;13.60;;
51529;SDS011;37613;51.788;21.582;2023-11-18T01:46:10;18.20;;;12.20;;
51529;SDS011;37613;51.788;21.582;2023-11-18T01:50:12;19.30;;;12.90;;
51529;SDS011;37613;51.788;21.582;2023-11-18T01:54:15;20.00;;;13.10;;
51529;SDS011;37613;51.788;21.582;2023-11-18T01:58:20;27.70;;;17.50;;
51529;SDS011;37613;51.788;21.582;2023-11-18T02:02:25;26.90;;;16.60;;
51529;SDS011;37613;51.788;21.582;2023-11-18T02:06:27;27.40;;;15.20;;
51529;SDS011;37613;51.788;21.582;2023-11-18T02:10:30;21.90;;;13.00;;
51529;SDS011;37613;51.788;21.582;2023-11-18T02:14:34;31.40;;;17.30;;
51529;SDS011;37613;51.788;21.582;2023-11-18T02:18:40;24.60;;;14.40;;
51529;SDS011;37613;51.788;21.582;2023-11-18T02:22:44;20.80;;;12.40;;
51529;SDS011;37613;51.788;21.582;2023-11-18T02:26:49;22.90;;;15.60;;
51529;SDS011;37613;51.788;21.582;2023-11-18T02:30:53;20.20;;;13.40;;
51529;SDS011;37613;51.788;21.582;2023-11-18T02:39:20;14.20;;;10.60;;
51529;SDS011;37613;51.788;21.582;2023-11-18T02:43:24;19.10;;;11.70;;
51529;SDS011;37613;51.788;21.582;2023-11-18T02:47:30;13.30;;;9.30;;
51529;SDS011;37613;51.788;21.582;2023-11-18T02:51:32;15.40;;;10.40;;
51529;SDS011;37613;51.788;21.582;2023-11-18T02:55:35;16.80;;;11.40;;
51529;SDS011;37613;51.788;21.582;2023-11-18T02:59:37;16.20;;;11.50;;
51529;SDS011;37613;51.788;21.582;2023-11-18T03:03:39;21.00;;;12.60;;
51529;SDS011;37613;51.788;21.582;2023-11-18T03:07:41;25.80;;;16.60;;
51529;SDS011;37613;51.788;21.582;2023-11-18T03:11:46;16.80;;;11.60;;
51529;SDS011;37613;51.788;21.582;2023-11-18T03:15:48;13.20;;;9.90;;
51529;SDS011;37613;51.788;21.582;2023-11-18T03:23:53;13.20;;;9.20;;
51529;SDS011;37613;51.788;21.582;2023-11-18T03:27:55;15.70;;;11.50;;
51529;SDS011;37613;51.788;21.582;2023-11-18T03:31:57;13.80;;;10.80;;
51529;SDS011;37613;51.788;21.582;2023-11-18T03:36:00;14.30;;;9.80;;
51529;SDS011;37613;51.788;21.582;2023-11-18T03:40:01;17.30;;;13.20;;
51529;SDS011;37613;51.788;21.582;2023-11-18T03:44:04;15.70;;;12.00;;
51529;SDS011;37613;51.788;21.582;2023-11-18T03:48:06;15.30;;;10.40;;
51529;SDS011;37613;51.788;21.582;2023-11-18T03:52:08;13.40;;;9.00;;
51529;SDS011;37613;51.788;21.582;2023-11-18T03:56:10;14.10;;;10.00;;
51529;SDS011;37613;51.788;21.582;2023-11-18T04:00:20;11.40;;;9.20;;
51529;SDS011;37613;51.788;21.582;2023-11-18T04:04:22;14.00;;;10.10;;
51529;SDS011;37613;51.788;21.582;2023-11-18T04:08:24;12.20;;;8.80;;
51529;SDS011;37613;51.788;21.582;2023-11-18T04:12:27;10.70;;;8.70;;
51529;SDS011;37613;51.788;21.582;2023-11-18T04:16:29;11.60;;;9.10;;
51529;SDS011;37613;51.788;21.582;2023-11-18T04:20:31;12.10;;;9.30;;
51529;SDS011;37613;51.788;21.582;2023-11-18T04:24:34;12.90;;;8.80;;
51529;SDS011;37613;51.788;21.582;2023-11-18T04:28:36;10.40;;;7.80;;
51529;SDS011;37613;51.788;21.582;2023-11-18T04:32:38;15.00;;;10.00;;
51529;SDS011;37613;51.788;21.582;2023-11-18T04:36:41;15.60;;;10.20;;
51529;SDS011;37613;51.788;21.582;2023-11-18T04:40:43;12.80;;;10.40;;
51529;SDS011;37613;51.788;21.582;2023-11-18T04:44:47;11.30;;;8.80;;
51529;SDS011;37613;51.788;21.582;2023-11-18T04:48:49;12.70;;;10.20;;
51529;SDS011;37613;51.788;21.582;2023-11-18T04:52:51;14.20;;;10.70;;
51529;SDS011;37613;51.788;21.582;2023-11-18T04:56:56;16.40;;;10.80;;
51529;SDS011;37613;51.788;21.582;2023-11-18T05:00:59;12.90;;;9.40;;
51529;SDS011;37613;51.788;21.582;2023-11-18T05:05:01;16.30;;;12.70;;
51529;SDS011;37613;51.788;21.582;2023-11-18T05:09:04;15.40;;;11.20;;
51529;SDS011;37613;51.788;21.582;2023-11-18T05:13:09;18.50;;;12.30;;
51529;SDS011;37613;51.788;21.582;2023-11-18T05:17:11;15.30;;;11.10;;
51529;SDS011;37613;51.788;21.582;2023-11-18T05:21:13;15.90;;;11.50;;
51529;SDS011;37613;51.788;21.582;2023-11-18T05:25:15;20.60;;;13.90;;
51529;SDS011;37613;51.788;21.582;2023-11-18T05:29:17;20.30;;;13.90;;
51529;SDS011;37613;51.788;21.582;2023-11-18T05:33:19;18.50;;;14.00;;
51529;SDS011;37613;51.788;21.582;2023-11-18T05:37:21;23.60;;;15.20;;
51529;SDS011;37613;51.788;21.582;2023-11-18T05:41:24;22.50;;;17.30;;
51529;SDS011;37613;51.788;21.582;2023-11-18T05:45:29;21.40;;;15.80;;
51529;SDS011;37613;51.788;21.582;2023-11-18T05:49:33;19.90;;;14.30;;
51529;SDS011;37613;51.788;21.582;2023-11-18T05:53:42;21.10;;;15.30;;
51529;SDS011;37613;51.788;21.582;2023-11-18T05:57:48;20.50;;;14.70;;
51529;SDS011;37613;51.788;21.582;2023-11-18T06:01:50;17.10;;;12.40;;
51529;SDS011;37613;51.788;21.582;2023-11-18T06:05:52;16.70;;;12.60;;
51529;SDS011;37613;51.788;21.582;2023-11-18T06:09:54;15.70;;;12.40;;
51529;SDS011;37613;51.788;21.582;2023-11-18T06:13:57;18.50;;;13.70;;
51529;SDS011;37613;51.788;21.582;2023-11-18T06:17:59;19.60;;;14.30;;
51529;SDS011;37613;51.788;21.582;2023-11-18T06:22:01;24.00;;;16.10;;
51529;SDS011;37613;51.788;21.582;2023-11-18T06:26:03;19.30;;;13.90;;
51529;SDS011;37613;51.788;21.582;2023-11-18T06:30:06;17.00;;;13.80;;
51529;SDS011;37613;51.788;21.582;2023-11-18T06:34:08;22.30;;;15.20;;
51529;SDS011;37613;51.788;21.582;2023-11-18T06:38:10;21.80;;;15.50;;
51529;SDS011;37613;51.788;21.582;2023-11-18T06:42:14;20.70;;;14.60;;
51529;SDS011;37613;51.788;21.582;2023-11-18T06:46:16;20.60;;;14.60;;
51529;SDS011;37613;51.788;21.582;2023-11-18T06:50:22;24.60;;;16.00;;
51529;SDS011;37613;51.788;21.582;2023-11-18T06:58:29;16.00;;;12.00;;
51529;SDS011;37613;51.788;21.582;2023-11-18T07:02:31;18.50;;;13.90;;
51529;SDS011;37613;51.788;21.582;2023-11-18T07:06:33;21.60;;;13.20;;
51529;SDS011;37613;51.788;21.582;2023-11-18T07:10:40;17.90;;;12.60;;
51529;SDS011;37613;51.788;21.582;2023-11-18T07:14:42;16.40;;;12.70;;
51529;SDS011;37613;51.788;21.582;2023-11-18T07:18:44;14.40;;;10.80;;
51529;SDS011;37613;51.788;21.582;2023-11-18T07:22:46;13.90;;;11.20;;
51529;SDS011;37613;51.788;21.582;2023-11-18T07:26:48;13.70;;;11.00;;
51529;SDS011;37613;51.788;21.582;2023-11-18T07:30:52;13.10;;;10.50;;
51529;SDS011;37613;51.788;21.582;2023-11-18T07:34:55;14.70;;;11.40;;
51529;SDS011;37613;51.788;21.582;2023-11-18T07:38:57;14.20;;;10.20;;
51529;SDS011;37613;51.788;21.582;2023-11-18T07:43:02;17.90;;;11.40;;
51529;SDS011;37613;51.788;21.582;2023-11-18T07:47:04;16.20;;;11.50;;
51529;SDS011;37613;51.788;21.582;2023-11-18T07:51:07;14.80;;;10.80;;
51529;SDS011;37613;51.788;21.582;2023-11-18T07:55:09;14.20;;;10.20;;
51529;SDS011;37613;51.788;21.582;2023-11-18T07:59:13;17.50;;;11.20;;
51529;SDS011;37613;51.788;21.582;2023-11-18T08:03:17;17.60;;;11.40;;
51529;SDS011;37613;51.788;21.582;2023-11-18T08:07:19;15.90;;;11.10;;
51529;SDS011;37613;51.788;21.582;2023-11-18T08:11:21;15.90;;;10.60;;
51529;SDS011;37613;51.788;21.582;2023-11-18T08:15:24;15.40;;;10.20;;
51529;SDS011;37613;51.788;21.582;2023-11-18T08:19:28;16.10;;;10.90;;
51529;SDS011;37613;51.788;21.582;2023-11-18T08:23:30;14.70;;;9.80;;
51529;SDS011;37613;51.788;21.582;2023-11-18T08:27:33;13.30;;;9.90;;
51529;SDS011;37613;51.788;21.582;2023-11-18T08:31:35;15.60;;;10.90;;
51529;SDS011;37613;51.788;21.582;2023-11-18T08:35:43;13.40;;;9.20;;
51529;SDS011;37613;51.788;21.582;2023-11-18T08:39:45;15.20;;;10.30;;
51529;SDS011;37613;51.788;21.582;2023-11-18T08:43:47;12.30;;;9.70;;
51529;SDS011;37613;51.788;21.582;2023-11-18T08:47:50;13.60;;;10.20;;
51529;SDS011;37613;51.788;21.582;2023-11-18T08:51:54;16.50;;;11.00;;
51529;SDS011;37613;51.788;21.582;2023-11-18T08:56:00;12.40;;;9.50;;
51529;SDS011;37613;51.788;21.582;2023-11-18T09:00:07;18.50;;;14.10;;
51529;SDS011;37613;51.788;21.582;2023-11-18T09:04:30;16.70;;;13.90;;
51529;SDS011;37613;51.788;21.582;2023-11-18T09:08:35;14.00;;;9.70;;
51529;SDS011;37613;51.788;21.582;2023-11-18T09:12:40;14.50;;;10.30;;
51529;SDS011;37613;51.788;21.582;2023-11-18T09:17:12;15.10;;;10.30;;
51529;SDS011;37613;51.788;21.582;2023-11-18T09:21:16;14.10;;;10.20;;
51529;SDS011;37613;51.788;21.582;2023-11-18T09:25:25;14.00;;;10.30;;
51529;SDS011;37613;51.788;21.582;2023-11-18T09:29:27;17.10;;;11.60;;
51529;SDS011;37613;51.788;21.582;2023-11-18T09:33:30;16.70;;;11.10;;
51529;SDS011;37613;51.788;21.582;2023-11-18T09:37:39;19.20;;;12.10;;
51529;SDS011;37613;51.788;21.582;2023-11-18T09:41:45;19.20;;;12.00;;
51529;SDS011;37613;51.788;21.582;2023-11-18T09:45:54;16.30;;;12.30;;
51529;SDS011;37613;51.788;21.582;2023-11-18T09:50:08;18.10;;;12.20;;
51529;SDS011;37613;51.788;21.582;2023-11-18T09:54:39;13.80;;;10.00;;
51529;SDS011;37613;51.788;21.582;2023-11-18T09:59:12;29.50;;;20.80;;
51529;SDS011;37613;51.788;21.582;2023-11-18T10:03:35;15.40;;;11.80;;
51529;SDS011;37613;51.788;21.582;2023-11-18T10:07:42;14.70;;;11.20;;
51529;SDS011;37613;51.788;21.582;2023-11-18T10:11:47;14.10;;;10.50;;
51529;SDS011;37613;51.788;21.582;2023-11-18T10:15:50;15.70;;;11.50;;
51529;SDS011;37613;51.788;21.582;2023-11-18T10:19:55;21.40;;;13.90;;
51529;SDS011;37613;51.788;21.582;2023-11-18T10:23:59;18.00;;;12.90;;
51529;SDS011;37613;51.788;21.582;2023-11-18T10:28:02;18.70;;;13.10;;
51529;SDS011;37613;51.788;21.582;2023-11-18T10:32:05;18.00;;;12.30;;
51529;SDS011;37613;51.788;21.582;2023-11-18T10:36:21;17.70;;;13.00;;
51529;SDS011;37613;51.788;21.582;2023-11-18T10:40:25;21.30;;;14.20;;
51529;SDS011;37613;51.788;21.582;2023-11-18T10:44:29;18.70;;;13.90;;
51529;SDS011;37613;51.788;21.582;2023-11-18T10:48:31;33.70;;;18.90;;
51529;SDS011;37613;51.788;21.582;2023-11-18T10:52:33;22.00;;;13.70;;
51529;SDS011;37613;51.788;21.582;2023-11-18T10:56:45;22.60;;;13.90;;
51529;SDS011;37613;51.788;21.582;2023-11-18T11:00:49;22.50;;;15.70;;
51529;SDS011;37613;51.788;21.582;2023-11-18T11:04:55;17.20;;;12.10;;
51529;SDS011;37613;51.788;21.582;2023-11-18T11:09:00;19.90;;;13.10;;
51529;SDS011;37613;51.788;21.582;2023-11-18T11:13:02;17.30;;;13.00;;
51529;SDS011;37613;51.788;21.582;2023-11-18T11:17:07;20.60;;;15.40;;
51529;SDS011;37613;51.788;21.582;2023-11-18T11:21:14;21.00;;;14.00;;
51529;SDS011;37613;51.788;21.582;2023-11-18T11:25:19;21.90;;;14.70;;
51529;SDS011;37613;51.788;21.582;2023-11-18T11:29:42;21.50;;;14.60;;
51529;SDS011;37613;51.788;21.582;2023-11-18T11:33:52;26.00;;;16.60;;
51529;SDS011;37613;51.788;21.582;2023-11-18T11:38:13;27.50;;;16.00;;
51529;SDS011;37613;51.788;21.582;2023-11-18T11:42:18;28.30;;;17.20;;
51529;SDS011;37613;51.788;21.582;2023-11-18T11:46:22;23.90;;;15.40;;
51529;SDS011;37613;51.788;21.582;2023-11-18T11:50:31;22.00;;;14.30;;
51529;SDS011;37613;51.788;21.582;2023-11-18T11:59:15;24.10;;;16.00;;
51529;SDS011;37613;51.788;21.582;2023-11-18T12:03:18;27.00;;;16.90;;
51529;SDS011;37613;51.788;21.582;2023-11-18T12:07:27;29.00;;;17.20;;
51529;SDS011;37613;51.788;21.582;2023-11-18T12:11:31;25.70;;;17.40;;
51529;SDS011;37613;51.788;21.582;2023-11-18T12:15:53;30.70;;;19.30;;
51529;SDS011;37613;51.788;21.582;2023-11-18T12:19:58;28.20;;;16.80;;
51529;SDS011;37613;51.788;21.582;2023-11-18T12:24:18;23.90;;;16.30;;
51529;SDS011;37613;51.788;21.582;2023-11-18T12:28:24;30.10;;;18.70;;
51529;SDS011;37613;51.788;21.582;2023-11-18T12:42:01;42.50;;;23.10;;
51529;SDS011;37613;51.788;21.582;2023-11-18T12:50:39;27.60;;;17.50;;
51529;SDS011;37613;51.788;21.582;2023-11-18T12:54:44;24.10;;;16.80;;
51529;SDS011;37613;51.788;21.582;2023-11-18T12:58:52;25.90;;;16.70;;
51529;SDS011;37613;51.788;21.582;2023-11-18T13:02:55;30.80;;;18.40;;
51529;SDS011;37613;51.788;21.582;2023-11-18T13:06:59;27.50;;;18.20;;
51529;SDS011;37613;51.788;21.582;2023-11-18T13:11:04;28.80;;;19.00;;
51529;SDS011;37613;51.788;21.582;2023-11-18T13:15:07;33.20;;;21.40;;
51529;SDS011;37613;51.788;21.582;2023-11-18T13:19:09;31.90;;;19.80;;
51529;SDS011;37613;51.788;21.582;2023-11-18T13:23:11;44.70;;;25.50;;
51529;SDS011;37613;51.788;21.582;2023-11-18T13:27:20;35.20;;;23.70;;
51529;SDS011;37613;51.788;21.582;2023-11-18T13:31:24;35.90;;;22.90;;
51529;SDS011;37613;51.788;21.582;2023-11-18T13:35:27;42.40;;;24.40;;
51529;SDS011;37613;51.788;21.582;2023-11-18T13:39:30;36.00;;;24.70;;
51529;SDS011;37613;51.788;21.582;2023-11-18T13:47:51;42.10;;;27.50;;
51529;SDS011;37613;51.788;21.582;2023-11-18T13:51:54;36.50;;;22.20;;
51529;SDS011;37613;51.788;21.582;2023-11-18T13:55:57;48.10;;;27.20;;
51529;SDS011;37613;51.788;21.582;2023-11-18T13:59:59;35.10;;;21.40;;
51529;SDS011;37613;51.788;21.582;2023-11-18T14:04:02;42.00;;;23.20;;
51529;SDS011;37613;51.788;21.582;2023-11-18T14:08:05;30.50;;;20.30;;
51529;SDS011;37613;51.788;21.582;2023-11-18T14:12:11;36.60;;;21.70;;
51529;SDS011;37613;51.788;21.582;2023-11-18T14:16:14;35.80;;;22.30;;
51529;SDS011;37613;51.788;21.582;2023-11-18T14:20:18;36.50;;;22.00;;
51529;SDS011;37613;51.788;21.582;2023-11-18T14:24:23;40.60;;;24.10;;
51529;SDS011;37613;51.788;21.582;2023-11-18T14:28:29;37.20;;;22.80;;
51529;SDS011;37613;51.788;21.582;2023-11-18T14:32:30;32.20;;;19.40;;
51529;SDS011;37613;51.788;21.582;2023-11-18T14:36:32;34.20;;;20.80;;
51529;SDS011;37613;51.788;21.582;2023-11-18T14:40:35;36.70;;;23.20;;
51529;SDS011;37613;51.788;21.582;2023-11-18T14:44:37;44.80;;;26.70;;
51529;SDS011;37613;51.788;21.582;2023-11-18T14:48:40;37.50;;;23.20;;
51529;SDS011;37613;51.788;21.582;2023-11-18T14:52:42;47.60;;;27.40;;
51529;SDS011;37613;51.788;21.582;2023-11-18T14:56:44;39.80;;;23.40;;
51529;SDS011;37613;51.788;21.582;2023-11-18T15:00:50;35.70;;;23.50;;
51529;SDS011;37613;51.788;21.582;2023-11-18T15:04:52;45.80;;;25.90;;
51529;SDS011;37613;51.788;21.582;2023-11-18T15:08:54;43.10;;;27.40;;
51529;SDS011;37613;51.788;21.582;2023-11-18T15:12:58;39.80;;;22.20;;
51529;SDS011;37613;51.788;21.582;2023-11-18T15:17:02;40.20;;;24.40;;
51529;SDS011;37613;51.788;21.582;2023-11-18T15:25:07;40.40;;;26.00;;
51529;SDS011;37613;51.788;21.582;2023-11-18T15:29:13;42.50;;;25.80;;
51529;SDS011;37613;51.788;21.582;2023-11-18T15:33:16;47.90;;;27.30;;
51529;SDS011;37613;51.788;21.582;2023-11-18T15:37:18;50.50;;;29.80;;
51529;SDS011;37613;51.788;21.582;2023-11-18T15:41:20;50.40;;;29.20;;
51529;SDS011;37613;51.788;21.582;2023-11-18T15:45:22;49.30;;;30.00;;
51529;SDS011;37613;51.788;21.582;2023-11-18T15:49:30;49.30;;;28.50;;
51529;SDS011;37613;51.788;21.582;2023-11-18T15:53:32;47.70;;;28.20;;
51529;SDS011;37613;51.788;21.582;2023-11-18T15:57:37;47.50;;;29.30;;
51529;SDS011;37613;51.788;21.582;2023-11-18T16:01:39;53.30;;;29.60;;
51529;SDS011;37613;51.788;21.582;2023-11-18T16:05:41;53.60;;;29.20;;
51529;SDS011;37613;51.788;21.582;2023-11-18T16:09:43;75.90;;;40.80;;
51529;SDS011;37613;51.788;21.582;2023-11-18T16:13:45;64.50;;;34.60;;
51529;SDS011;37613;51.788;21.582;2023-11-18T16:17:48;53.00;;;30.10;;
51529;SDS011;37613;51.788;21.582;2023-11-18T16:21:53;56.30;;;32.40;;
51529;SDS011;37613;51.788;21.582;2023-11-18T16:25:55;51.80;;;30.00;;
51529;SDS011;37613;51.788;21.582;2023-11-18T16:29:58;59.20;;;32.90;;
51529;SDS011;37613;51.788;21.582;2023-11-18T16:34:00;42.60;;;26.80;;
51529;SDS011;37613;51.788;21.582;2023-11-18T16:38:04;46.70;;;28.30;;
51529;SDS011;37613;51.788;21.582;2023-11-18T16:42:06;48.40;;;28.80;;
51529;SDS011;37613;51.788;21.582;2023-11-18T16:46:08;47.20;;;25.90;;
51529;SDS011;37613;51.788;21.582;2023-11-18T16:50:10;44.60;;;25.30;;
51529;SDS011;37613;51.788;21.582;2023-11-18T16:54:13;44.90;;;28.60;;
51529;SDS011;37613;51.788;21.582;2023-11-18T16:58:15;46.30;;;27.30;;
51529;SDS011;37613;51.788;21.582;2023-11-18T17:02:17;46.10;;;26.10;;
51529;SDS011;37613;51.788;21.582;2023-11-18T17:06:23;48.60;;;27.30;;
51529;SDS011;37613;51.788;21.582;2023-11-18T17:10:25;50.30;;;28.40;;
51529;SDS011;37613;51.788;21.582;2023-11-18T17:14:27;51.40;;;28.80;;
51529;SDS011;37613;51.788;21.582;2023-11-18T17:18:30;48.70;;;27.70;;
51529;SDS011;37613;51.788;21.582;2023-11-18T17:22:33;48.10;;;28.00;;
51529;SDS011;37613;51.788;21.582;2023-11-18T17:26:35;46.90;;;27.00;;
51529;SDS011;37613;51.788;21.582;2023-11-18T17:30:45;53.80;;;29.70;;
51529;SDS011;37613;51.788;21.582;2023-11-18T17:34:48;63.50;;;33.60;;
51529;SDS011;37613;51.788;21.582;2023-11-18T17:38:51;61.40;;;32.90;;
51529;SDS011;37613;51.788;21.582;2023-11-18T17:42:53;54.10;;;29.70;;
51529;SDS011;37613;51.788;21.582;2023-11-18T17:46:55;55.20;;;31.50;;
51529;SDS011;37613;51.788;21.582;2023-11-18T17:50:58;53.80;;;30.10;;
51529;SDS011;37613;51.788;21.582;2023-11-18T17:55:01;54.90;;;29.80;;
51529;SDS011;37613;51.788;21.582;2023-11-18T17:59:05;53.10;;;29.90;;
51529;SDS011;37613;51.788;21.582;2023-11-18T18:03:07;55.20;;;31.10;;
51529;SDS011;37613;51.788;21.582;2023-11-18T18:07:09;59.80;;;33.70;;
51529;SDS011;37613;51.788;21.582;2023-11-18T18:11:13;63.00;;;35.60;;
51529;SDS011;37613;51.788;21.582;2023-11-18T18:15:15;54.30;;;31.70;;
51529;SDS011;37613;51.788;21.582;2023-11-18T18:19:17;56.80;;;34.40;;
51529;SDS011;37613;51.788;21.582;2023-11-18T18:23:20;53.10;;;29.50;;
51529;SDS011;37613;51.788;21.582;2023-11-18T18:27:22;49.40;;;28.50;;
51529;SDS011;37613;51.788;21.582;2023-11-18T18:31:24;65.90;;;38.30;;
51529;SDS011;37613;51.788;21.582;2023-11-18T18:35:26;58.70;;;34.00;;
51529;SDS011;37613;51.788;21.582;2023-11-18T18:39:29;52.40;;;30.70;;
51529;SDS011;37613;51.788;21.582;2023-11-18T18:43:31;81.60;;;45.00;;
51529;SDS011;37613;51.788;21.582;2023-11-18T18:47:34;79.40;;;42.40;;
51529;SDS011;37613;51.788;21.582;2023-11-18T18:51:37;68.70;;;36.70;;
51529;SDS011;37613;51.788;21.582;2023-11-18T18:55:41;66.20;;;37.20;;
51529;SDS011;37613;51.788;21.582;2023-11-18T18:59:45;85.90;;;40.10;;
51529;SDS011;37613;51.788;21.582;2023-11-18T19:07:51;81.90;;;39.80;;
51529;SDS011;37613;51.788;21.582;2023-11-18T19:11:59;72.80;;;40.10;;
51529;SDS011;37613;51.788;21.582;2023-11-18T19:16:01;74.70;;;39.70;;
51529;SDS011;37613;51.788;21.582;2023-11-18T19:20:03;80.70;;;41.50;;
51529;SDS011;37613;51.788;21.582;2023-11-18T19:24:09;60.50;;;33.00;;
51529;SDS011;37613;51.788;21.582;2023-11-18T19:28:16;60.60;;;33.40;;
51529;SDS011;37613;51.788;21.582;2023-11-18T19:32:18;63.60;;;37.10;;
51529;SDS011;37613;51.788;21.582;2023-11-18T19:36:21;73.40;;;36.60;;
51529;SDS011;37613;51.788;21.582;2023-11-18T19:40:23;59.30;;;34.10;;
51529;SDS011;37613;51.788;21.582;2023-11-18T19:44:26;63.90;;;36.10;;
51529;SDS011;37613;51.788;21.582;2023-11-18T19:48:28;62.40;;;34.80;;
51529;SDS011;37613;51.788;21.582;2023-11-18T19:52:34;52.90;;;31.80;;
51529;SDS011;37613;51.788;21.582;2023-11-18T19:56:36;45.90;;;27.10;;
51529;SDS011;37613;51.788;21.582;2023-11-18T20:00:40;38.90;;;23.00;;
51529;SDS011;37613;51.788;21.582;2023-11-18T20:04:46;36.50;;;22.60;;
51529;SDS011;37613;51.788;21.582;2023-11-18T20:08:48;38.10;;;22.30;;
51529;SDS011;37613;51.788;21.582;2023-11-18T20:12:51;44.60;;;24.20;;
51529;SDS011;37613;51.788;21.582;2023-11-18T20:16:55;39.30;;;23.60;;
51529;SDS011;37613;51.788;21.582;2023-11-18T20:20:58;41.10;;;24.20;;
51529;SDS011;37613;51.788;21.582;2023-11-18T20:25:01;54.70;;;31.20;;
51529;SDS011;37613;51.788;21.582;2023-11-18T20:29:03;57.20;;;32.30;;
51529;SDS011;37613;51.788;21.582;2023-11-18T20:33:06;45.70;;;28.10;;
51529;SDS011;37613;51.788;21.582;2023-11-18T20:37:08;45.60;;;28.20;;
51529;SDS011;37613;51.788;21.582;2023-11-18T20:41:10;46.50;;;27.20;;
51529;SDS011;37613;51.788;21.582;2023-11-18T20:45:15;49.30;;;27.00;;
51529;SDS011;37613;51.788;21.582;2023-11-18T20:49:19;72.30;;;36.70;;
51529;SDS011;37613;51.788;21.582;2023-11-18T20:53:22;74.30;;;40.50;;
51529;SDS011;37613;51.788;21.582;2023-11-18T20:57:27;76.10;;;42.70;;
51529;SDS011;37613;51.788;21.582;2023-11-18T21:01:29;66.90;;;37.00;;
51529;SDS011;37613;51.788;21.582;2023-11-18T21:05:32;68.40;;;39.10;;
51529;SDS011;37613;51.788;21.582;2023-11-18T21:09:34;84.50;;;49.30;;
51529;SDS011;37613;51.788;21.582;2023-11-18T21:13:37;71.40;;;40.80;;
51529;SDS011;37613;51.788;21.582;2023-11-18T21:17:43;67.70;;;38.10;;
51529;SDS011;37613;51.788;21.582;2023-11-18T21:21:47;63.00;;;34.30;;
51529;SDS011;37613;51.788;21.582;2023-11-18T21:25:49;62.30;;;33.50;;
51529;SDS011;37613;51.788;21.582;2023-11-18T21:29:52;65.50;;;34.20;;
51529;SDS011;37613;51.788;21.582;2023-11-18T21:33:54;61.70;;;34.80;;
51529;SDS011;37613;51.788;21.582;2023-11-18T21:37:58;56.60;;;33.10;;
51529;SDS011;37613;51.788;21.582;2023-11-18T21:42:00;51.50;;;30.60;;
51529;SDS011;37613;51.788;21.582;2023-11-18T21:46:02;53.10;;;29.00;;
51529;SDS011;37613;51.788;21.582;2023-11-18T21:50:05;44.30;;;26.70;;
51529;SDS011;37613;51.788;21.582;2023-11-18T21:54:07;45.20;;;26.60;;
51529;SDS011;37613;51.788;21.582;2023-11-18T21:58:10;71.00;;;41.10;;
51529;SDS011;37613;51.788;21.582;2023-11-18T22:02:13;72.60;;;42.10;;
51529;SDS011;37613;51.788;21.582;2023-11-18T22:06:15;63.30;;;34.20;;
51529;SDS011;37613;51.788;21.582;2023-11-18T22:10:17;66.80;;;37.30;;
51529;SDS011;37613;51.788;21.582;2023-11-18T22:14:20;56.90;;;31.40;;
51529;SDS011;37613;51.788;21.582;2023-11-18T22:18:22;59.90;;;30.20;;
51529;SDS011;37613;51.788;21.582;2023-11-18T22:22:24;72.70;;;39.70;;
51529;SDS011;37613;51.788;21.582;2023-11-18T22:26:26;154.10;;;81.10;;
51529;SDS011;37613;51.788;21.582;2023-11-18T22:30:28;200.20;;;101.30;;
51529;SDS011;37613;51.788;21.582;2023-11-18T22:34:30;98.50;;;49.80;;
51529;SDS011;37613;51.788;21.582;2023-11-18T22:38:33;70.20;;;36.10;;
51529;SDS011;37613;51.788;21.582;2023-11-18T22:42:35;57.30;;;32.90;;
51529;SDS011;37613;51.788;21.582;2023-11-18T22:46:39;56.60;;;30.20;;
51529;SDS011;37613;51.788;21.582;2023-11-18T22:50:41;181.90;;;86.90;;
51529;SDS011;37613;51.788;21.582;2023-11-18T22:54:43;75.80;;;37.30;;
51529;SDS011;37613;51.788;21.582;2023-11-18T22:58:45;63.60;;;35.90;;
51529;SDS011;37613;51.788;21.582;2023-11-18T23:02:48;59.90;;;34.50;;
51529;SDS011;37613;51.788;21.582;2023-11-18T23:06:50;50.30;;;32.90;;
51529;SDS011;37613;51.788;21.582;2023-11-18T23:11:01;54.90;;;35.70;;
51529;SDS011;37613;51.788;21.582;2023-11-18T23:15:03;46.50;;;28.30;;
51529;SDS011;37613;51.788;21.582;2023-11-18T23:19:07;41.20;;;23.80;;
51529;SDS011;37613;51.788;21.582;2023-11-18T23:23:09;48.40;;;27.10;;
51529;SDS011;37613;51.788;21.582;2023-11-18T23:27:13;46.70;;;25.50;;
51529;SDS011;37613;51.788;21.582;2023-11-18T23:31:15;52.60;;;27.70;;
51529;SDS011;37613;51.788;21.582;2023-11-18T23:35:18;50.80;;;27.80;;
51529;SDS011;37613;51.788;21.582;2023-11-18T23:39:20;51.10;;;27.30;;
51529;SDS011;37613;51.788;21.582;2023-11-18T23:43:30;66.60;;;32.20;;
51529;SDS011;37613;51.788;21.582;2023-11-18T23:47:33;56.20;;;29.10;;
51529;SDS011;37613;51.788;21.582;2023-11-18T23:51:35;51.40;;;27.10;;
51529;SDS011;37613;51.788;21.582;2023-11-18T23:55:37;77.70;;;36.20;;
51529;SDS011;37613;51.788;21.582;2023-11-18T23:59:39;61.50;;;32.40;;
